createdAt,value
2024-05-09T00:00:57.038Z,2.83
2024-05-09T00:06:04.943Z,3.13
2024-05-09T00:11:10.448Z,2.63
2024-05-09T00:16:15.685Z,2.90
2024-05-09T00:21:23.435Z,2.70
2024-05-09T00:26:28.770Z,2.73
2024-05-09T00:31:34.009Z,2.37
2024-05-09T00:36:41.785Z,2.80
2024-05-09T00:41:47.010Z,3.10
2024-05-09T00:46:54.646Z,2.33
2024-05-09T00:52:02.788Z,2.73
2024-05-09T00:57:08.626Z,2.90
2024-05-09T01:02:14.693Z,3.17
2024-05-09T01:07:22.569Z,3.20
2024-05-09T01:12:27.825Z,2.97
2024-05-09T01:17:33.263Z,3.60
2024-05-09T01:22:42.699Z,2.77
2024-05-09T01:27:50.543Z,2.63
2024-05-09T01:32:55.952Z,3.10
2024-05-09T01:38:01.489Z,2.97
2024-05-09T01:43:10.712Z,3.03
2024-05-09T01:48:17.118Z,3.00
2024-05-09T01:53:22.450Z,3.10
2024-05-09T01:58:30.723Z,2.97
2024-05-09T02:03:35.989Z,2.67
2024-05-09T02:08:41.390Z,3.00
2024-05-09T02:13:49.256Z,3.00
2024-05-09T02:18:54.592Z,3.20
2024-05-09T02:23:59.820Z,2.90
2024-05-09T02:29:07.808Z,3.53
2024-05-09T02:34:13.136Z,3.20
2024-05-09T02:39:18.407Z,3.07
2024-05-09T02:44:26.313Z,2.97
2024-05-09T02:49:31.591Z,3.53
2024-05-09T02:54:36.796Z,3.17
2024-05-09T02:59:46.025Z,2.97
2024-05-09T03:04:51.355Z,3.10
2024-05-09T03:09:56.557Z,3.20
2024-05-09T03:15:04.327Z,3.47
2024-05-09T03:20:20.019Z,3.03
2024-05-09T03:25:28.797Z,3.43
2024-05-09T03:30:41.724Z,3.50
2024-05-09T03:35:49.253Z,3.00
2024-05-09T03:40:55.007Z,4.10
2024-05-09T03:46:02.857Z,3.13
2024-05-09T03:51:08.674Z,2.93
2024-05-09T03:56:13.984Z,3.13
2024-05-09T04:01:21.843Z,3.00
2024-05-09T04:06:28.217Z,2.93
2024-05-09T04:11:33.484Z,3.03
2024-05-09T04:16:41.428Z,2.87
2024-05-09T04:21:46.645Z,2.90
2024-05-09T04:26:51.845Z,2.90
2024-05-09T04:31:59.773Z,3.03
2024-05-09T04:37:05.651Z,2.83
2024-05-09T04:42:10.769Z,2.50
2024-05-09T04:47:19.706Z,2.87
2024-05-09T04:52:25.071Z,3.40
2024-05-09T04:57:30.200Z,3.53
2024-05-09T05:02:38.229Z,3.67
2024-05-09T05:07:43.507Z,3.63
2024-05-09T05:13:04.823Z,3.30
2024-05-09T05:18:12.813Z,3.40
2024-05-09T05:23:19.590Z,3.30
2024-05-09T05:28:25.264Z,2.33
2024-05-09T05:33:33.241Z,2.50
2024-05-09T05:38:38.580Z,2.17
2024-05-09T05:43:44.302Z,2.60
2024-05-09T05:48:52.276Z,2.63
2024-05-09T05:53:57.652Z,2.33
2024-05-09T05:59:02.901Z,2.97
2024-05-09T06:04:10.786Z,2.10
2024-05-09T06:09:16.028Z,2.13
2024-05-09T06:14:21.371Z,3.10
2024-05-09T06:19:29.437Z,3.63
2024-05-09T06:24:34.785Z,4.50
2024-05-09T06:29:40.992Z,5.20
2024-05-09T06:34:49.880Z,3.40
2024-05-09T06:39:55.312Z,2.73
2024-05-09T06:45:00.451Z,3.20
2024-05-09T06:50:16.329Z,4.20
2024-05-09T06:55:28.359Z,3.87
2024-05-09T07:00:38.959Z,3.60
2024-05-09T07:05:49.966Z,4.30
2024-05-09T07:10:55.523Z,3.00
2024-05-09T07:16:00.808Z,3.53
2024-05-09T07:21:09.068Z,4.17
2024-05-09T07:26:14.560Z,4.23
2024-05-09T07:31:19.892Z,4.47
2024-05-09T07:36:27.685Z,4.97
2024-05-09T07:41:33.064Z,5.87
2024-05-09T07:47:47.317Z,5.87
2024-05-09T07:57:14.691Z,7.33
2024-05-09T08:02:20.239Z,5.17
2024-05-09T08:07:28.440Z,6.00
2024-05-09T08:12:36.692Z,6.13
2024-05-09T08:17:41.928Z,5.00
2024-05-09T08:22:49.760Z,5.20
2024-05-09T08:27:55.075Z,6.10
2024-05-09T08:33:00.442Z,6.33
2024-05-09T08:38:10.092Z,5.50
2024-05-09T08:43:17.036Z,6.30
2024-05-09T08:48:25.951Z,6.37
2024-05-09T08:53:34.008Z,6.00
2024-05-09T08:58:40.417Z,6.60
2024-05-09T09:03:46.587Z,7.13
2024-05-09T09:08:54.679Z,4.90
2024-05-09T09:13:59.911Z,6.20
2024-05-09T09:19:05.774Z,6.07
2024-05-09T09:24:15.241Z,3.93
2024-05-09T09:29:23.286Z,3.10
2024-05-09T09:34:31.181Z,2.50
2024-05-09T09:39:42.050Z,2.47
2024-05-09T09:44:58.000Z,2.83
2024-05-09T09:50:14.471Z,4.53
2024-05-09T09:55:25.716Z,2.80
2024-05-09T10:00:33.391Z,1.73
2024-05-09T10:05:42.086Z,2.40
2024-05-09T10:10:52.465Z,2.57
2024-05-09T10:15:57.861Z,1.90
2024-05-09T10:21:03.241Z,2.27
2024-05-09T10:26:11.043Z,2.40
2024-05-09T10:31:18.852Z,1.67
2024-05-09T10:36:25.478Z,1.47
2024-05-09T10:41:33.334Z,1.50
2024-05-09T10:46:38.779Z,1.40
2024-05-09T10:51:44.936Z,1.30
2024-05-09T10:56:59.339Z,1.70
2024-05-09T11:02:07.632Z,1.43
2024-05-09T11:07:15.802Z,1.40
2024-05-09T11:12:24.906Z,1.07
2024-05-09T11:17:30.304Z,1.40
2024-05-09T11:22:35.903Z,2.00
2024-05-09T11:27:45.310Z,1.07
2024-05-09T11:32:50.707Z,1.20
2024-05-09T11:37:55.975Z,1.40
2024-05-09T11:43:03.952Z,1.70
2024-05-09T11:48:09.861Z,1.33
2024-05-09T11:53:15.520Z,1.43
2024-05-09T11:58:24.004Z,1.67
2024-05-09T12:03:29.338Z,1.47
2024-05-09T12:08:34.552Z,1.00
2024-05-09T12:13:42.352Z,1.20
2024-05-09T12:18:47.691Z,1.13
2024-05-09T12:23:53.132Z,1.50
2024-05-09T12:29:00.952Z,0.90
2024-05-09T12:34:06.267Z,1.20
2024-05-09T12:39:12.060Z,0.97
2024-05-09T12:44:19.882Z,1.50
2024-05-09T12:49:25.569Z,1.27
2024-05-09T12:54:33.462Z,1.33
2024-05-09T12:59:41.344Z,1.97
2024-05-09T13:04:46.651Z,1.07
2024-05-09T13:09:51.929Z,1.03
2024-05-09T13:14:59.784Z,1.57
2024-05-09T13:20:07.051Z,1.80
2024-05-09T13:25:14.547Z,1.53
2024-05-09T13:30:29.603Z,2.00
2024-05-09T13:35:48.721Z,1.97
2024-05-09T13:40:55.899Z,1.80
2024-05-09T13:46:03.789Z,1.60
2024-05-09T13:51:09.215Z,1.63
2024-05-09T13:56:14.606Z,1.47
2024-05-09T14:01:22.474Z,1.17
2024-05-09T14:06:27.793Z,1.33
2024-05-09T14:11:33.018Z,3.43
2024-05-09T14:16:42.373Z,2.17
2024-05-09T14:21:47.662Z,1.13
2024-05-09T14:26:53.057Z,1.00
2024-05-09T14:32:00.856Z,0.87
2024-05-09T14:37:06.265Z,1.10
2024-05-09T14:42:11.457Z,1.17
2024-05-09T14:47:21.037Z,1.40
2024-05-09T14:52:26.282Z,1.13
2024-05-09T14:57:31.592Z,1.30
2024-05-09T15:02:39.678Z,0.80
2024-05-09T15:07:47.427Z,1.10
2024-05-09T15:12:53.087Z,0.87
2024-05-09T15:18:01.217Z,1.00
2024-05-09T15:23:07.630Z,1.37
2024-05-09T15:28:12.974Z,0.90
2024-05-09T15:33:20.968Z,1.10
2024-05-09T15:38:26.347Z,1.00
2024-05-09T15:43:31.687Z,0.73
2024-05-09T15:48:42.696Z,0.90
2024-05-09T15:53:49.805Z,0.90
2024-05-09T15:58:54.956Z,1.23
2024-05-09T16:04:02.941Z,0.90
2024-05-09T16:09:08.549Z,0.87
2024-05-09T16:14:13.672Z,2.63
2024-05-09T16:19:21.808Z,0.70
2024-05-09T16:24:27.207Z,1.37
2024-05-09T16:29:32.480Z,1.20
2024-05-09T16:34:40.251Z,0.80
2024-05-09T16:39:45.578Z,0.80
2024-05-09T16:44:50.783Z,0.80
2024-05-09T16:49:58.547Z,0.80
2024-05-09T16:55:04.166Z,0.80
2024-05-09T17:00:18.086Z,0.87
2024-05-09T17:05:33.759Z,1.17
2024-05-09T17:10:39.282Z,1.07
2024-05-09T17:15:44.741Z,0.90
2024-05-09T17:20:52.853Z,0.80
2024-05-09T17:25:58.087Z,1.03
2024-05-09T17:31:03.358Z,0.73
2024-05-09T17:36:11.399Z,0.93
2024-05-09T17:41:16.656Z,2.27
2024-05-09T17:46:21.895Z,1.30
2024-05-09T17:51:29.789Z,1.40
2024-05-09T17:56:35.054Z,3.07
2024-05-09T18:01:40.347Z,1.40
2024-05-09T18:06:48.391Z,2.93
2024-05-09T18:11:53.638Z,1.93
2024-05-09T18:16:58.988Z,1.90
2024-05-09T18:22:06.995Z,1.70
2024-05-09T18:27:12.523Z,1.53
2024-05-09T18:32:18.059Z,2.00
2024-05-09T18:37:26.775Z,1.60
2024-05-09T18:42:31.980Z,1.77
2024-05-09T18:47:37.572Z,2.00
2024-05-09T18:52:45.450Z,1.80
2024-05-09T18:57:50.641Z,1.43
2024-05-09T19:02:56.278Z,1.33
2024-05-09T19:08:04.244Z,1.43
2024-05-09T19:13:12.676Z,1.33
2024-05-09T19:18:19.530Z,1.20
2024-05-09T19:23:27.452Z,1.23
2024-05-09T19:28:32.629Z,1.33
2024-05-09T19:33:38.374Z,1.10
2024-05-09T19:38:46.640Z,1.30
2024-05-09T19:43:51.849Z,1.90
2024-05-09T19:48:57.527Z,0.97
2024-05-09T19:54:05.555Z,1.30
2024-05-09T19:59:10.790Z,1.20
2024-05-09T20:04:16.167Z,1.03
2024-05-09T20:09:24.073Z,0.90
2024-05-09T20:14:29.298Z,1.20
2024-05-09T20:19:34.737Z,1.50
2024-05-09T20:24:42.898Z,1.13
2024-05-09T20:29:48.082Z,1.00
2024-05-09T20:34:53.219Z,1.07
2024-05-09T20:40:01.018Z,2.37
2024-05-09T20:45:06.788Z,0.87
2024-05-09T20:50:23.028Z,1.30
2024-05-09T20:55:36.623Z,1.40
2024-05-09T21:00:44.709Z,1.37
2024-05-09T21:05:51.506Z,1.77
2024-05-09T21:10:59.599Z,1.20
2024-05-09T21:16:25.393Z,1.40
2024-05-09T21:22:21.174Z,0.90
2024-05-09T21:27:29.294Z,1.27
2024-05-09T21:32:34.509Z,1.20
2024-05-09T21:37:39.761Z,1.20
2024-05-09T21:42:48.067Z,1.07
2024-05-09T21:47:53.539Z,1.20
2024-05-09T21:52:58.952Z,1.80
2024-05-09T21:58:07.157Z,0.77
2024-05-09T22:03:12.818Z,1.13
2024-05-09T22:08:18.266Z,1.00
2024-05-09T22:13:26.239Z,1.30
2024-05-09T22:18:31.676Z,0.93
2024-05-09T22:23:37.039Z,1.20
2024-05-09T22:28:45.461Z,0.93
2024-05-09T22:33:50.900Z,1.30
2024-05-09T22:38:56.101Z,1.50
2024-05-09T22:44:04.078Z,1.13
2024-05-09T22:49:09.424Z,1.30
2024-05-09T22:54:14.643Z,1.30
2024-05-09T22:59:22.470Z,1.70
2024-05-09T23:04:27.709Z,2.03
2024-05-09T23:09:32.953Z,2.50
2024-05-09T23:14:40.789Z,2.20
2024-05-09T23:19:45.938Z,1.30
2024-05-09T23:24:51.282Z,1.80
2024-05-09T23:30:29.274Z,2.00
2024-05-09T23:35:42.148Z,1.23
2024-05-09T23:40:47.435Z,1.40
2024-05-09T23:45:55.284Z,1.60
2024-05-09T23:51:00.729Z,1.07
2024-05-09T23:56:05.841Z,1.50
